Time;durP1;ratioP1;P1;durP2;ratioP2;P2;SDS_P1;SDS_P2;PMS_P1;PMS_P2;Temp;Humidity;BMP_temperature;BMP_pressure;BME280_temperature;BME280_humidity;BME280_pressure;Samples;Min_cycle;Max_cycle;Signal;HPM_P1;HPM_P2
2021/05/12 00:00:42;;;;;;;16.53;13.60;;;;;;;;;;5117652;27;20487;-79
2021/05/12 00:03:08;;;;;;;18.13;14.95;;;;;;;;;;5129487;27;20863;-80
2021/05/12 00:05:34;;;;;;;19.17;15.52;;;;;;;;;;5112381;28;20278;-81
2021/05/12 00:08:00;;;;;;;15.93;14.23;;;;;;;;;;5133265;27;20170;-80
2021/05/12 00:10:26;;;;;;;19.02;14.48;;;;;;;;;;5137235;27;20260;-79
2021/05/12 00:12:52;;;;;;;18.02;16.13;;;;;;;;;;5133927;27;20197;-80
2021/05/12 00:15:21;;;;;;;18.38;15.88;;;;;;;;;;5114883;28;20261;-78
2021/05/12 00:17:49;;;;;;;17.58;15.55;;;;;;;;;;5130225;27;20257;-78
2021/05/12 00:20:22;;;;;;;22.65;15.90;;;;;;;;;;5123857;27;20526;-77
2021/05/12 00:22:53;;;;;;;20.92;15.93;;;;;;;;;;5112822;27;20665;-79
2021/05/12 00:25:20;;;;;;;19.60;15.35;;;;;;;;;;5129632;27;20258;-78
2021/05/12 00:27:46;;;;;;;18.08;16.27;;;;;;;;;;5116843;27;20231;-81
2021/05/12 00:30:17;;;;;;;17.33;15.63;;;;;;;;;;5115819;28;20179;-79
2021/05/12 00:32:45;;;;;;;18.10;15.15;;;;;;;;;;5106367;28;20575;-77
2021/05/12 00:35:11;;;;;;;19.90;16.02;;;;;;;;;;5114434;28;20594;-79
2021/05/12 00:37:37;;;;;;;17.13;15.10;;;;;;;;;;5122650;27;20205;-78
2021/05/12 00:40:04;;;;;;;17.40;15.60;;;;;;;;;;5136474;27;20197;-79
2021/05/12 00:42:30;;;;;;;15.68;14.00;;;;;;;;;;5128710;27;20271;-78
2021/05/12 00:44:57;;;;;;;14.73;13.15;;;;;;;;;;5116483;27;20175;-80
2021/05/12 00:47:30;;;;;;;20.27;13.40;;;;;;;;;;5123374;27;20166;-78
2021/05/12 00:49:56;;;;;;;14.55;13.15;;;;;;;;;;5115770;27;20516;-80
2021/05/12 00:52:23;;;;;;;14.65;13.00;;;;;;;;;;5109840;28;20207;-77
2021/05/12 00:54:49;;;;;;;13.52;11.73;;;;;;;;;;5125812;27;20681;-77
2021/05/12 00:57:15;;;;;;;12.80;11.32;;;;;;;;;;5114095;27;20181;-78
2021/05/12 00:59:43;;;;;;;10.93;9.35;;;;;;;;;;5108794;27;20203;-79
2021/05/12 01:02:09;;;;;;;11.55;10.10;;;;;;;;;;5114990;28;20558;-78
2021/05/12 01:04:35;;;;;;;15.05;10.48;;;;;;;;;;5126105;27;20193;-80
2021/05/12 01:07:01;;;;;;;13.68;9.15;;;;;;;;;;5113933;28;20202;-84
2021/05/12 01:09:27;;;;;;;10.18;8.00;;;;;;;;;;5116063;28;20266;-81
2021/05/12 01:11:54;;;;;;;10.20;9.20;;;;;;;;;;5115996;28;20194;-78
2021/05/12 01:14:20;;;;;;;9.82;8.80;;;;;;;;;;5118342;27;20171;-79
2021/05/12 01:16:47;;;;;;;10.88;8.75;;;;;;;;;;5115574;28;20197;-79
2021/05/12 01:19:13;;;;;;;8.90;8.00;;;;;;;;;;5120734;27;20192;-80
2021/05/12 01:21:39;;;;;;;8.85;7.35;;;;;;;;;;5109602;27;20168;-77
2021/05/12 01:24:06;;;;;;;11.55;8.23;;;;;;;;;;5109731;28;20202;-78
2021/05/12 01:26:32;;;;;;;9.30;8.30;;;;;;;;;;5117084;27;20171;-80
2021/05/12 01:28:58;;;;;;;8.75;7.90;;;;;;;;;;5125794;27;20289;-79
2021/05/12 01:31:30;;;;;;;11.15;8.27;;;;;;;;;;5108480;28;20240;-79
2021/05/12 01:33:56;;;;;;;9.02;8.02;;;;;;;;;;5108957;28;20186;-79
2021/05/12 01:36:22;;;;;;;9.90;7.70;;;;;;;;;;5105526;28;20176;-79
2021/05/12 01:38:49;;;;;;;9.45;7.60;;;;;;;;;;5109187;28;20441;-80
2021/05/12 01:41:16;;;;;;;13.43;7.10;;;;;;;;;;5114868;28;20188;-78
2021/05/12 01:43:42;;;;;;;8.88;7.03;;;;;;;;;;5114780;28;20194;-80
2021/05/12 01:46:08;;;;;;;13.07;7.70;;;;;;;;;;5127651;27;20181;-80
2021/05/12 01:48:34;;;;;;;10.30;8.05;;;;;;;;;;5135457;27;20550;-79
2021/05/12 01:51:02;;;;;;;13.70;8.65;;;;;;;;;;5116036;27;20174;-79
2021/05/12 01:53:28;;;;;;;10.38;7.88;;;;;;;;;;5121937;27;20182;-79
2021/05/12 01:55:55;;;;;;;9.50;7.60;;;;;;;;;;5104916;27;20178;-79
2021/05/12 01:58:21;;;;;;;7.95;7.13;;;;;;;;;;5121749;27;20205;-78
2021/05/12 02:00:48;;;;;;;8.95;7.82;;;;;;;;;;5105648;27;20191;-78
2021/05/12 02:03:15;;;;;;;11.40;8.82;;;;;;;;;;5129123;27;20198;-78
2021/05/12 02:05:42;;;;;;;11.73;10.50;;;;;;;;;;5112444;27;20192;-78
2021/05/12 02:08:09;;;;;;;12.23;10.35;;;;;;;;;;5112603;28;20195;-79
2021/05/12 02:10:35;;;;;;;14.88;12.73;;;;;;;;;;5114994;28;20175;-81
2021/05/12 02:13:01;;;;;;;16.50;14.65;;;;;;;;;;5112426;28;20166;-77
2021/05/12 02:15:27;;;;;;;17.88;15.30;;;;;;;;;;5114770;28;20178;-80
2021/05/12 02:17:54;;;;;;;18.58;16.08;;;;;;;;;;5111703;28;20166;-81
2021/05/12 02:20:21;;;;;;;17.42;15.73;;;;;;;;;;5119010;27;20178;-78
2021/05/12 02:22:47;;;;;;;21.35;17.88;;;;;;;;;;5113026;27;20209;-81
2021/05/12 02:25:13;;;;;;;26.40;17.45;;;;;;;;;;5113920;28;20353;-77
2021/05/12 02:27:39;;;;;;;20.35;18.27;;;;;;;;;;5115517;27;20636;-77
2021/05/12 02:30:06;;;;;;;21.45;18.88;;;;;;;;;;5116886;27;20532;-80
2021/05/12 02:32:32;;;;;;;22.88;20.35;;;;;;;;;;5120481;27;20193;-79
2021/05/12 02:34:59;;;;;;;21.55;18.73;;;;;;;;;;5112956;28;20178;-78
2021/05/12 02:37:25;;;;;;;21.58;19.17;;;;;;;;;;5113021;28;20234;-79
2021/05/12 02:39:52;;;;;;;21.77;19.48;;;;;;;;;;5121469;27;20202;-79
2021/05/12 02:42:18;;;;;;;22.75;18.92;;;;;;;;;;5116090;27;20201;-79
2021/05/12 02:44:44;;;;;;;22.95;20.50;;;;;;;;;;5123390;27;20180;-79
2021/05/12 02:47:10;;;;;;;20.37;18.37;;;;;;;;;;5112802;27;20177;-80
2021/05/12 02:49:36;;;;;;;24.65;17.33;;;;;;;;;;5113904;28;20441;-79
2021/05/12 02:52:03;;;;;;;21.60;18.90;;;;;;;;;;5126533;27;20174;-80
2021/05/12 02:54:29;;;;;;;21.05;16.42;;;;;;;;;;5115357;27;20171;-80
2021/05/12 02:56:55;;;;;;;20.17;16.85;;;;;;;;;;5113560;27;20200;-78
2021/05/12 02:59:21;;;;;;;18.77;16.80;;;;;;;;;;5125014;27;20198;-80
2021/05/12 03:01:47;;;;;;;20.60;17.33;;;;;;;;;;5126418;27;20227;-80
2021/05/12 03:04:13;;;;;;;20.10;16.87;;;;;;;;;;5133748;27;20185;-79
2021/05/12 03:06:40;;;;;;;18.30;16.38;;;;;;;;;;5125374;27;20784;-80
2021/05/12 03:09:07;;;;;;;17.25;15.48;;;;;;;;;;5122900;28;20229;-79
2021/05/12 03:11:33;;;;;;;19.13;14.80;;;;;;;;;;5132549;28;20269;-78
2021/05/12 03:13:59;;;;;;;19.35;15.50;;;;;;;;;;5123871;28;20653;-79
2021/05/12 03:16:25;;;;;;;20.30;15.55;;;;;;;;;;5104669;28;20183;-79
2021/05/12 03:18:51;;;;;;;20.25;16.10;;;;;;;;;;5131125;28;20246;-79
2021/05/12 03:21:17;;;;;;;17.10;15.27;;;;;;;;;;5121147;28;20584;-78
2021/05/12 03:23:43;;;;;;;19.95;16.27;;;;;;;;;;5109403;28;20513;-79
2021/05/12 03:26:10;;;;;;;22.05;16.75;;;;;;;;;;5108275;28;20557;-78
2021/05/12 03:28:36;;;;;;;18.38;15.73;;;;;;;;;;5124019;28;20193;-78
2021/05/12 03:31:02;;;;;;;23.50;16.70;;;;;;;;;;5118869;28;21766;-78
2021/05/12 03:33:28;;;;;;;19.73;16.52;;;;;;;;;;5130261;28;20783;-78
2021/05/12 03:35:54;;;;;;;20.75;16.50;;;;;;;;;;5108924;28;20178;-78
2021/05/12 03:38:20;;;;;;;27.93;18.00;;;;;;;;;;5122344;28;20198;-78
2021/05/12 03:40:46;;;;;;;20.05;15.77;;;;;;;;;;5133801;28;20414;-79
2021/05/12 03:43:12;;;;;;;19.88;16.52;;;;;;;;;;5119958;28;20195;-80
2021/05/12 03:45:38;;;;;;;24.38;17.77;;;;;;;;;;5107004;28;20180;-79
2021/05/12 03:48:06;;;;;;;23.17;19.33;;;;;;;;;;5121797;28;20534;-80
2021/05/12 03:50:32;;;;;;;24.27;18.33;;;;;;;;;;5130371;28;20669;-80
2021/05/12 03:52:58;;;;;;;25.90;19.13;;;;;;;;;;5112805;28;20515;-79
2021/05/12 03:55:24;;;;;;;24.15;19.60;;;;;;;;;;5104727;28;20224;-79
2021/05/12 03:57:51;;;;;;;22.42;18.00;;;;;;;;;;5113335;28;20179;-78
2021/05/12 04:00:17;;;;;;;27.30;20.02;;;;;;;;;;5110466;28;20575;-79
2021/05/12 04:02:44;;;;;;;27.58;20.67;;;;;;;;;;5114524;28;20214;-79
2021/05/12 04:05:10;;;;;;;26.38;20.00;;;;;;;;;;5104066;28;20215;-77
2021/05/12 04:07:37;;;;;;;22.92;18.55;;;;;;;;;;5122736;28;20164;-78
2021/05/12 04:10:04;;;;;;;25.60;19.08;;;;;;;;;;5116380;28;20221;-79
2021/05/12 04:12:30;;;;;;;24.20;18.33;;;;;;;;;;5131466;28;20576;-78
2021/05/12 04:14:56;;;;;;;25.02;17.95;;;;;;;;;;5128221;28;20183;-79
2021/05/12 04:17:22;;;;;;;23.15;18.25;;;;;;;;;;5115257;27;20170;-78
2021/05/12 04:19:48;;;;;;;24.67;18.50;;;;;;;;;;5120046;27;20193;-80
2021/05/12 04:22:15;;;;;;;26.75;18.42;;;;;;;;;;5126358;27;20201;-78
2021/05/12 04:24:42;;;;;;;24.10;16.90;;;;;;;;;;5120055;27;20184;-77
2021/05/12 04:27:08;;;;;;;21.70;17.90;;;;;;;;;;5115307;27;20185;-80
2021/05/12 04:29:36;;;;;;;24.73;17.25;;;;;;;;;;5131321;27;20666;-79
2021/05/12 04:32:02;;;;;;;21.58;16.40;;;;;;;;;;5131755;27;20176;-80
2021/05/12 04:34:28;;;;;;;23.17;16.70;;;;;;;;;;5136750;27;20166;-78
2021/05/12 04:36:54;;;;;;;24.42;18.10;;;;;;;;;;5115874;27;20570;-77
2021/05/12 04:39:20;;;;;;;25.65;17.08;;;;;;;;;;5112600;27;20204;-78
2021/05/12 04:41:46;;;;;;;24.00;17.70;;;;;;;;;;5108223;27;20261;-79
2021/05/12 04:44:12;;;;;;;26.77;18.30;;;;;;;;;;5132163;27;20261;-80
2021/05/12 04:46:40;;;;;;;27.48;18.92;;;;;;;;;;5116162;27;20411;-79
2021/05/12 04:49:07;;;;;;;25.60;19.35;;;;;;;;;;5115891;28;20191;-80
2021/05/12 04:51:35;;;;;;;24.15;18.75;;;;;;;;;;5114708;28;20683;-79
2021/05/12 04:54:01;;;;;;;26.38;19.65;;;;;;;;;;5115707;27;20197;-78
2021/05/12 04:56:27;;;;;;;24.10;18.33;;;;;;;;;;5120257;27;20665;-79
2021/05/12 04:58:53;;;;;;;23.77;18.63;;;;;;;;;;5115449;28;20281;-78
2021/05/12 05:01:19;;;;;;;26.63;18.80;;;;;;;;;;5111240;28;20447;-79
2021/05/12 05:03:45;;;;;;;24.83;18.27;;;;;;;;;;5149501;27;20466;-79
2021/05/12 05:06:11;;;;;;;25.50;18.33;;;;;;;;;;5118417;27;20201;-77
2021/05/12 05:08:38;;;;;;;20.25;17.23;;;;;;;;;;5123075;27;20192;-79
2021/05/12 05:11:04;;;;;;;22.73;15.75;;;;;;;;;;5116393;28;20179;-78
2021/05/12 05:13:30;;;;;;;19.80;15.13;;;;;;;;;;5119820;27;20176;-79
2021/05/12 05:15:56;;;;;;;20.43;15.67;;;;;;;;;;5111970;27;20692;-78
2021/05/12 05:18:22;;;;;;;20.02;15.23;;;;;;;;;;5134230;27;20431;-81
2021/05/12 05:20:49;;;;;;;22.40;16.35;;;;;;;;;;5111642;27;20185;-79
2021/05/12 05:23:15;;;;;;;21.73;14.95;;;;;;;;;;5112957;28;20203;-78
2021/05/12 05:25:41;;;;;;;19.40;15.93;;;;;;;;;;5115624;28;20171;-79
2021/05/12 05:28:07;;;;;;;16.92;15.13;;;;;;;;;;5115248;28;20174;-78
2021/05/12 05:30:33;;;;;;;22.38;15.10;;;;;;;;;;5125443;27;20183;-79
2021/05/12 05:33:00;;;;;;;18.67;15.32;;;;;;;;;;5111903;27;20176;-80
2021/05/12 05:35:26;;;;;;;19.63;14.70;;;;;;;;;;5108390;27;20179;-80
2021/05/12 05:37:52;;;;;;;19.85;14.43;;;;;;;;;;5116856;27;20179;-78
2021/05/12 05:40:18;;;;;;;20.55;15.55;;;;;;;;;;5113103;28;20182;-78
2021/05/12 05:42:44;;;;;;;26.08;15.48;;;;;;;;;;5114957;28;20250;-78
2021/05/12 05:45:10;;;;;;;17.48;14.75;;;;;;;;;;5115721;27;20866;-78
2021/05/12 05:47:36;;;;;;;19.95;14.80;;;;;;;;;;5130657;27;20208;-79
2021/05/12 05:50:04;;;;;;;18.27;14.80;;;;;;;;;;5128265;27;20538;-79
2021/05/12 05:52:30;;;;;;;16.60;14.27;;;;;;;;;;5118297;27;20186;-79
2021/05/12 05:54:56;;;;;;;19.75;15.00;;;;;;;;;;5114727;28;20246;-80
2021/05/12 05:57:22;;;;;;;17.90;14.20;;;;;;;;;;5114321;28;20182;-81
2021/05/12 05:59:48;;;;;;;20.48;15.40;;;;;;;;;;5114270;28;20190;-80
2021/05/12 06:02:14;;;;;;;21.58;16.25;;;;;;;;;;5121545;27;20223;-80
2021/05/12 06:04:40;;;;;;;20.63;15.40;;;;;;;;;;5117596;27;20225;-78
2021/05/12 06:07:07;;;;;;;18.15;15.18;;;;;;;;;;5134829;27;20548;-78
2021/05/12 06:09:33;;;;;;;20.55;15.52;;;;;;;;;;5134553;27;20190;-80
2021/05/12 06:11:59;;;;;;;16.25;13.68;;;;;;;;;;5118483;27;20175;-78
2021/05/12 06:14:25;;;;;;;20.90;15.60;;;;;;;;;;5118111;27;20190;-78
2021/05/12 06:16:51;;;;;;;18.42;15.60;;;;;;;;;;5134690;27;20214;-81
2021/05/12 06:19:17;;;;;;;16.27;14.52;;;;;;;;;;5130783;27;20235;-79
2021/05/12 06:21:43;;;;;;;16.00;13.38;;;;;;;;;;5100150;28;20181;-77
2021/05/12 06:24:11;;;;;;;18.25;14.75;;;;;;;;;;5113423;28;20318;-79
2021/05/12 06:26:39;;;;;;;17.15;13.52;;;;;;;;;;5128088;27;20167;-81
2021/05/12 06:29:05;;;;;;;17.98;15.02;;;;;;;;;;5113545;28;20191;-84
2021/05/12 06:31:31;;;;;;;16.92;14.82;;;;;;;;;;5114922;27;20190;-82
2021/05/12 06:33:59;;;;;;;17.38;13.90;;;;;;;;;;5116649;27;20509;-78
2021/05/12 06:36:25;;;;;;;22.63;14.05;;;;;;;;;;5107169;27;20220;-78
2021/05/12 06:38:51;;;;;;;17.40;13.88;;;;;;;;;;5115169;27;20209;-78
2021/05/12 06:41:18;;;;;;;19.13;13.57;;;;;;;;;;5099042;27;20188;-77
2021/05/12 06:43:44;;;;;;;16.75;13.80;;;;;;;;;;5098052;28;20207;-77
2021/05/12 06:46:10;;;;;;;19.60;13.70;;;;;;;;;;5109969;28;20166;-77
2021/05/12 06:48:36;;;;;;;15.10;12.52;;;;;;;;;;5123743;27;20196;-79
2021/05/12 06:51:02;;;;;;;17.38;15.00;;;;;;;;;;5130601;27;20166;-81
2021/05/12 06:53:29;;;;;;;14.13;12.63;;;;;;;;;;5115791;27;20176;-78
2021/05/12 06:55:55;;;;;;;15.70;13.75;;;;;;;;;;5126728;27;20186;-78
2021/05/12 06:58:22;;;;;;;18.58;13.55;;;;;;;;;;5121006;27;20205;-78
2021/05/12 07:00:50;;;;;;;18.25;15.13;;;;;;;;;;5105027;28;20190;-79
2021/05/12 07:03:19;;;;;;;16.08;13.65;;;;;;;;;;5116869;27;20208;-80
2021/05/12 07:05:45;;;;;;;14.52;12.85;;;;;;;;;;5105467;28;20190;-77
2021/05/12 07:08:11;;;;;;;16.10;12.10;;;;;;;;;;5109282;28;20202;-79
2021/05/12 07:10:38;;;;;;;15.68;13.52;;;;;;;;;;5116590;28;20186;-79
2021/05/12 07:13:04;;;;;;;15.57;13.73;;;;;;;;;;5121191;28;20204;-79
2021/05/12 07:15:30;;;;;;;15.38;12.90;;;;;;;;;;5122703;28;20534;-79
2021/05/12 07:17:56;;;;;;;16.35;13.50;;;;;;;;;;5093703;28;20813;-78
2021/05/12 07:20:22;;;;;;;15.43;13.80;;;;;;;;;;5120727;28;20583;-80
2021/05/12 07:22:48;;;;;;;19.38;14.50;;;;;;;;;;5109040;28;20190;-78
2021/05/12 07:25:15;;;;;;;22.40;17.38;;;;;;;;;;5105770;28;20186;-78
2021/05/12 07:27:41;;;;;;;21.80;14.38;;;;;;;;;;5124923;28;20178;-78
2021/05/12 07:30:07;;;;;;;17.27;15.00;;;;;;;;;;5097047;28;20206;-79
2021/05/12 07:32:33;;;;;;;15.95;14.25;;;;;;;;;;5106433;28;20211;-78
2021/05/12 07:35:00;;;;;;;17.20;14.57;;;;;;;;;;5119127;28;20181;-79
2021/05/12 07:37:26;;;;;;;20.13;13.90;;;;;;;;;;5117838;28;20526;-80
2021/05/12 07:39:53;;;;;;;16.40;13.20;;;;;;;;;;5107189;28;20238;-77
2021/05/12 07:42:19;;;;;;;14.02;12.23;;;;;;;;;;5113965;28;20567;-78
2021/05/12 07:44:48;;;;;;;16.63;13.52;;;;;;;;;;5126578;28;20204;-78
2021/05/12 07:47:14;;;;;;;14.80;12.15;;;;;;;;;;5120503;28;20528;-78
2021/05/12 07:49:40;;;;;;;17.85;12.68;;;;;;;;;;5124312;28;20233;-78
2021/05/12 07:52:14;;;;;;;15.52;12.27;;;;;;;;;;5118267;28;20172;-80
2021/05/12 07:54:41;;;;;;;14.90;11.95;;;;;;;;;;5106850;27;20200;-78
2021/05/12 07:57:09;;;;;;;14.27;12.80;;;;;;;;;;5121835;27;20174;-79
2021/05/12 07:59:35;;;;;;;18.13;12.55;;;;;;;;;;5113648;27;20195;-79
2021/05/12 08:02:04;;;;;;;15.27;12.40;;;;;;;;;;5127878;27;20178;-78
2021/05/12 08:04:30;;;;;;;15.82;12.73;;;;;;;;;;5099164;28;20274;-77
2021/05/12 08:06:56;;;;;;;17.33;13.57;;;;;;;;;;5119485;27;20209;-78
2021/05/12 08:09:22;;;;;;;15.50;11.23;;;;;;;;;;5133489;27;20670;-78
2021/05/12 08:11:49;;;;;;;18.63;12.90;;;;;;;;;;5114942;27;20428;-80
2021/05/12 08:14:15;;;;;;;12.07;10.45;;;;;;;;;;5127665;27;20177;-79
2021/05/12 08:16:41;;;;;;;13.25;11.05;;;;;;;;;;5127616;27;20540;-80
2021/05/12 08:19:07;;;;;;;12.40;11.00;;;;;;;;;;5110332;28;20206;-78
2021/05/12 08:21:34;;;;;;;16.88;11.93;;;;;;;;;;5118880;27;20317;-77
2021/05/12 08:24:01;;;;;;;14.02;11.38;;;;;;;;;;5128074;27;20254;-78
2021/05/12 08:26:28;;;;;;;12.68;11.48;;;;;;;;;;5120923;27;20591;-76
2021/05/12 08:28:54;;;;;;;18.20;12.52;;;;;;;;;;5117303;27;20282;-76
2021/05/12 08:31:20;;;;;;;14.80;11.73;;;;;;;;;;5121936;27;20269;-78
2021/05/12 08:33:46;;;;;;;16.08;12.18;;;;;;;;;;5131126;27;20420;-76
2021/05/12 08:36:13;;;;;;;14.70;12.68;;;;;;;;;;5122110;27;20220;-76
2021/05/12 08:38:45;;;;;;;16.58;12.57;;;;;;;;;;5134276;27;20209;-77
2021/05/12 08:41:12;;;;;;;19.35;12.45;;;;;;;;;;5114901;27;20605;-77
2021/05/12 08:43:39;;;;;;;13.85;12.32;;;;;;;;;;5114289;28;20281;-77
2021/05/12 08:46:05;;;;;;;15.18;11.88;;;;;;;;;;5113077;28;20178;-77
2021/05/12 08:48:33;;;;;;;16.10;12.63;;;;;;;;;;5115008;27;20186;-79
2021/05/12 08:50:59;;;;;;;13.65;11.88;;;;;;;;;;5116768;27;20178;-77
2021/05/12 08:53:26;;;;;;;17.90;13.40;;;;;;;;;;5128451;27;20230;-77
2021/05/12 08:55:52;;;;;;;16.42;12.65;;;;;;;;;;5122704;27;20418;-77
2021/05/12 08:58:18;;;;;;;15.85;12.10;;;;;;;;;;5116403;27;20205;-80
2021/05/12 09:00:45;;;;;;;14.33;11.20;;;;;;;;;;5110665;28;20185;-79
2021/05/12 09:03:11;;;;;;;14.60;11.55;;;;;;;;;;5125247;27;20459;-78
2021/05/12 09:05:37;;;;;;;16.58;11.95;;;;;;;;;;5117358;27;20547;-80
2021/05/12 09:08:03;;;;;;;16.08;12.13;;;;;;;;;;5104599;28;20187;-79
2021/05/12 09:10:29;;;;;;;17.20;11.82;;;;;;;;;;5112359;28;20227;-79
2021/05/12 09:12:57;;;;;;;11.17;10.10;;;;;;;;;;5116685;27;20183;-80
2021/05/12 09:15:24;;;;;;;11.82;10.43;;;;;;;;;;5112248;28;20486;-78
2021/05/12 09:17:51;;;;;;;12.57;9.82;;;;;;;;;;5110732;28;20205;-79
2021/05/12 09:20:20;;;;;;;13.43;9.75;;;;;;;;;;5123829;27;20192;-80
2021/05/12 09:22:52;;;;;;;9.53;8.40;;;;;;;;;;5112433;27;20197;-78
2021/05/12 09:25:18;;;;;;;12.63;8.93;;;;;;;;;;5127289;27;20408;-80
2021/05/12 09:27:51;;;;;;;11.40;9.43;;;;;;;;;;5112552;27;20762;-80
2021/05/12 09:30:24;;;;;;;12.03;9.20;;;;;;;;;;5125296;27;20182;-77
2021/05/12 09:32:50;;;;;;;9.90;7.73;;;;;;;;;;5119180;27;20512;-78
2021/05/12 09:35:16;;;;;;;9.02;6.82;;;;;;;;;;5119389;27;20419;-78
2021/05/12 09:37:43;;;;;;;12.53;7.50;;;;;;;;;;5127491;27;20413;-78
2021/05/12 09:40:17;;;;;;;8.80;7.63;;;;;;;;;;5118206;27;20519;-77
2021/05/12 09:42:44;;;;;;;10.80;7.33;;;;;;;;;;5121952;27;20837;-79
2021/05/12 09:45:16;;;;;;;8.83;6.37;;;;;;;;;;5106283;28;20452;-79
2021/05/12 09:47:43;;;;;;;8.87;6.97;;;;;;;;;;5101622;28;21021;-77
2021/05/12 09:50:19;;;;;;;9.10;7.20;;;;;;;;;;5106836;27;20428;-81
2021/05/12 09:52:46;;;;;;;9.90;6.93;;;;;;;;;;5105571;28;20421;-82
2021/05/12 09:55:14;;;;;;;7.60;6.90;;;;;;;;;;5108978;28;20420;-81
2021/05/12 09:57:58;;;;;;;9.13;6.60;;;;;;;;;;5108923;28;20421;-81
2021/05/12 10:00:32;;;;;;;8.13;6.47;;;;;;;;;;5105019;27;20407;-80
2021/05/12 10:02:58;;;;;;;6.90;6.00;;;;;;;;;;5100149;27;20453;-80
2021/05/12 10:05:25;;;;;;;10.17;7.47;;;;;;;;;;5116809;27;20439;-80
2021/05/12 10:07:52;;;;;;;7.30;6.10;;;;;;;;;;5125770;27;20911;-79
2021/05/12 10:10:37;;;;;;;9.65;6.40;;;;;;;;;;5118875;27;20750;-78
2021/05/12 10:13:03;;;;;;;5.82;5.25;;;;;;;;;;5128937;27;20189;-80
2021/05/12 10:15:29;;;;;;;6.47;5.33;;;;;;;;;;5118408;27;20251;-80
2021/05/12 10:17:55;;;;;;;9.00;5.60;;;;;;;;;;5110109;28;20758;-76
2021/05/12 10:20:22;;;;;;;8.80;4.90;;;;;;;;;;5101318;28;20785;-80
2021/05/12 10:22:50;;;;;;;7.00;5.47;;;;;;;;;;5129272;27;20458;-80
2021/05/12 10:25:16;;;;;;;7.30;4.77;;;;;;;;;;5120195;27;20421;-81
2021/05/12 10:27:43;;;;;;;10.70;5.40;;;;;;;;;;5109927;28;20409;-78
2021/05/12 10:30:11;;;;;;;6.73;5.10;;;;;;;;;;5109754;28;21143;-79
2021/05/12 10:32:43;;;;;;;4.80;4.40;;;;;;;;;;5109767;28;20439;-80
2021/05/12 10:35:11;;;;;;;6.40;4.40;;;;;;;;;;5123566;27;20836;-79
2021/05/12 10:37:38;;;;;;;8.17;4.37;;;;;;;;;;5122969;27;20761;-81
2021/05/12 10:40:05;;;;;;;9.33;5.20;;;;;;;;;;5109959;28;20486;-79
2021/05/12 10:42:45;;;;;;;4.73;4.33;;;;;;;;;;5112175;27;20478;-83
2021/05/12 10:45:14;;;;;;;6.40;4.93;;;;;;;;;;5111539;27;20409;-79
2021/05/12 10:47:40;;;;;;;6.10;4.30;;;;;;;;;;5107539;27;20899;-80
2021/05/12 10:50:07;;;;;;;5.73;4.57;;;;;;;;;;5105499;28;20509;-76
2021/05/12 10:52:33;;;;;;;9.40;4.70;;;;;;;;;;5105963;28;20428;-74
2021/05/12 10:54:59;;;;;;;5.27;4.77;;;;;;;;;;5111857;27;20421;-76
2021/05/12 10:57:44;;;;;;;4.80;4.30;;;;;;;;;;5125524;27;20413;-75
2021/05/12 11:00:10;;;;;;;6.50;5.27;;;;;;;;;;5103575;28;20470;-76
2021/05/12 11:03:03;;;;;;;4.90;4.50;;;;;;;;;;5108238;28;20467;-78
2021/05/12 11:05:47;;;;;;;6.70;5.23;;;;;;;;;;5110614;28;20436;-78
2021/05/12 11:08:14;;;;;;;5.67;4.77;;;;;;;;;;5127750;27;20437;-78
2021/05/12 11:10:54;;;;;;;5.80;5.30;;;;;;;;;;5108450;28;21117;-76
2021/05/12 11:13:23;;;;;;;6.67;5.00;;;;;;;;;;5113145;28;20890;-77
2021/05/12 11:15:50;;;;;;;7.60;6.20;;;;;;;;;;5130213;28;20417;-76
2021/05/12 11:18:35;;;;;;;6.50;5.90;;;;;;;;;;5117107;28;20434;-77
2021/05/12 11:21:34;;;;;;;8.47;6.47;;;;;;;;;;5105867;28;21111;-78
2021/05/12 11:24:07;;;;;;;7.57;6.87;;;;;;;;;;5113029;28;20470;-76
2021/05/12 11:32:09;;;;;;;14.83;8.13;;;;;;;;;;5116916;27;20461;-77
2021/05/12 11:34:35;;;;;;;9.43;8.30;;;;;;;;;;5112831;27;20427;-76
2021/05/12 11:37:09;;;;;;;9.47;8.60;;;;;;;;;;5111961;27;20410;-76
2021/05/12 11:39:36;;;;;;;10.30;9.30;;;;;;;;;;5110301;27;20442;-77
2021/05/12 11:42:02;;;;;;;13.03;8.63;;;;;;;;;;5112001;27;20416;-77
2021/05/12 11:44:28;;;;;;;10.90;9.33;;;;;;;;;;5115030;27;21152;-76
2021/05/12 11:46:54;;;;;;;10.93;8.80;;;;;;;;;;5127869;27;20886;-76
2021/05/12 11:49:22;;;;;;;10.03;8.40;;;;;;;;;;5118726;27;20451;-77
2021/05/12 11:51:49;;;;;;;8.97;7.73;;;;;;;;;;5108744;28;20445;-76
2021/05/12 11:54:16;;;;;;;9.20;7.53;;;;;;;;;;5109677;28;20430;-76
2021/05/12 11:56:45;;;;;;;8.83;7.87;;;;;;;;;;5108447;28;20436;-77
2021/05/12 11:59:15;;;;;;;8.90;8.00;;;;;;;;;;5112560;27;21179;-76
2021/05/12 12:01:44;;;;;;;9.53;7.60;;;;;;;;;;5115928;27;20431;-78
2021/05/12 12:06:43;;;;;;;8.00;4.70;;;;;;;;;;5118612;27;20430;-77
2021/05/12 12:09:10;;;;;;;6.73;4.93;;;;;;;;;;5104728;27;20455;-77
2021/05/12 12:11:36;;;;;;;10.07;4.93;;;;;;;;;;5131903;27;21028;-75
2021/05/12 12:14:03;;;;;;;6.50;4.37;;;;;;;;;;5120114;27;20892;-77
2021/05/12 12:16:29;;;;;;;7.23;4.40;;;;;;;;;;5112405;27;20496;-77
2021/05/12 12:18:55;;;;;;;12.37;4.57;;;;;;;;;;5110912;28;20520;-77
2021/05/12 12:21:40;;;;;;;4.97;3.93;;;;;;;;;;5114094;27;20642;-76
2021/05/12 12:24:17;;;;;;;5.20;4.13;;;;;;;;;;5128279;27;20451;-76
2021/05/12 12:26:47;;;;;;;7.17;5.13;;;;;;;;;;5128681;27;20415;-77
2021/05/12 12:29:13;;;;;;;5.97;4.27;;;;;;;;;;5109756;27;20805;-77
2021/05/12 12:31:44;;;;;;;5.20;3.70;;;;;;;;;;5120731;27;20902;-76
2021/05/12 12:34:20;;;;;;;5.87;3.87;;;;;;;;;;5129932;27;20430;-77
2021/05/12 12:36:48;;;;;;;8.17;3.97;;;;;;;;;;5129923;27;20414;-75
2021/05/12 12:39:14;;;;;;;13.10;4.50;;;;;;;;;;5130083;27;20443;-77
2021/05/12 12:41:40;;;;;;;5.67;3.60;;;;;;;;;;5132211;27;20427;-78
2021/05/12 12:44:06;;;;;;;4.57;3.20;;;;;;;;;;5110988;27;20473;-77
2021/05/12 12:46:32;;;;;;;8.67;3.90;;;;;;;;;;5132457;27;20412;-76
2021/05/12 12:48:58;;;;;;;5.93;3.83;;;;;;;;;;5108662;27;20435;-74
2021/05/12 12:51:41;;;;;;;5.73;3.43;;;;;;;;;;5132420;27;20419;-76
2021/05/12 12:54:07;;;;;;;5.00;3.93;;;;;;;;;;5104847;27;20412;-75
2021/05/12 12:56:33;;;;;;;4.20;3.33;;;;;;;;;;5119966;27;20443;-78
2021/05/12 12:59:10;;;;;;;6.20;3.70;;;;;;;;;;5111008;28;20448;-76
2021/05/12 13:01:37;;;;;;;7.90;3.67;;;;;;;;;;5116545;27;20434;-76
2021/05/12 13:04:15;;;;;;;7.07;4.23;;;;;;;;;;5123609;27;20453;-75
2021/05/12 13:06:41;;;;;;;7.17;4.13;;;;;;;;;;5102820;27;20506;-76
2021/05/12 13:09:23;;;;;;;5.30;3.90;;;;;;;;;;5121791;27;20444;-76
2021/05/12 13:11:56;;;;;;;4.60;3.53;;;;;;;;;;5107253;27;20764;-75
2021/05/12 13:14:22;;;;;;;3.60;3.30;;;;;;;;;;5112979;27;20988;-75
2021/05/12 13:16:49;;;;;;;5.77;4.17;;;;;;;;;;5111648;27;20412;-75
2021/05/12 13:19:18;;;;;;;5.70;4.17;;;;;;;;;;5113574;27;20854;-75
2021/05/12 13:21:54;;;;;;;5.33;4.00;;;;;;;;;;5131815;27;20402;-77
2021/05/12 13:24:25;;;;;;;5.07;3.33;;;;;;;;;;5127511;27;20467;-76
2021/05/12 13:26:59;;;;;;;4.80;3.83;;;;;;;;;;5131646;27;20411;-75
2021/05/12 13:29:26;;;;;;;5.33;4.77;;;;;;;;;;5111144;28;20446;-75
2021/05/12 13:31:52;;;;;;;7.53;4.40;;;;;;;;;;5108992;28;20513;-76
2021/05/12 13:34:21;;;;;;;5.00;4.00;;;;;;;;;;5108918;28;20431;-76
2021/05/12 13:36:49;;;;;;;6.40;4.50;;;;;;;;;;5109513;28;20483;-78
2021/05/12 13:39:16;;;;;;;5.27;4.70;;;;;;;;;;5120163;27;21023;-77
2021/05/12 13:41:42;;;;;;;7.03;4.80;;;;;;;;;;5109281;27;20442;-76
2021/05/12 13:44:08;;;;;;;7.23;4.80;;;;;;;;;;5131045;27;20487;-76
2021/05/12 13:46:35;;;;;;;8.20;5.27;;;;;;;;;;5130178;27;20453;-76
2021/05/12 13:49:01;;;;;;;6.50;4.60;;;;;;;;;;5111353;27;20454;-78
2021/05/12 13:51:31;;;;;;;5.20;4.70;;;;;;;;;;5125049;27;20410;-77
2021/05/12 13:54:08;;;;;;;6.83;4.60;;;;;;;;;;5099881;28;20430;-75
2021/05/12 14:04:57;;;;;;;7.80;5.07;;;;;;;;;;5125426;27;20456;-76
2021/05/12 14:07:23;;;;;;;6.93;5.60;;;;;;;;;;5111211;27;20432;-75
2021/05/12 14:09:51;;;;;;;6.47;4.90;;;;;;;;;;5128378;27;20434;-76
2021/05/12 14:12:20;;;;;;;7.07;4.80;;;;;;;;;;5121189;27;20426;-76
2021/05/12 14:17:38;;;;;;;7.80;5.43;;;;;;;;;;5100192;27;20475;-76
2021/05/12 14:20:08;;;;;;;9.83;5.47;;;;;;;;;;5117471;27;20453;-78
2021/05/12 14:22:34;;;;;;;8.80;6.03;;;;;;;;;;5119775;27;20472;-77
2021/05/12 14:25:00;;;;;;;8.37;6.33;;;;;;;;;;5109850;28;20952;-75
2021/05/12 14:27:26;;;;;;;6.10;5.23;;;;;;;;;;5108626;28;20518;-76
2021/05/12 14:29:54;;;;;;;8.30;5.20;;;;;;;;;;5109602;27;20438;-77
2021/05/12 14:32:21;;;;;;;5.03;4.57;;;;;;;;;;5123243;27;20486;-75
2021/05/12 14:34:47;;;;;;;6.40;4.97;;;;;;;;;;5111307;27;20916;-77
2021/05/12 14:37:15;;;;;;;6.40;4.93;;;;;;;;;;5109724;27;20580;-75
2021/05/12 14:39:41;;;;;;;5.63;4.50;;;;;;;;;;5108678;27;20457;-76
2021/05/12 14:42:08;;;;;;;7.03;5.50;;;;;;;;;;5109601;28;20432;-76
2021/05/12 14:44:35;;;;;;;5.90;5.30;;;;;;;;;;5107613;27;20478;-76
2021/05/12 14:47:01;;;;;;;6.80;5.50;;;;;;;;;;5103248;28;20564;-76